createdAt,value
2022-11-09T00:03:47.957Z,19.30
2022-11-09T00:07:09.566Z,20.10
2022-11-09T00:10:27.355Z,21.30
2022-11-09T00:13:29.007Z,20.60
2022-11-09T00:19:32.989Z,19.00
2022-11-09T00:22:34.767Z,20.00
2022-11-09T00:25:36.497Z,19.20
2022-11-09T00:31:39.946Z,22.40
2022-11-09T00:37:43.270Z,20.40
2022-11-09T00:43:47.504Z,24.40
2022-11-09T00:46:49.433Z,23.90
2022-11-09T00:49:51.250Z,22.90
2022-11-09T00:52:53.148Z,22.50
2022-11-09T00:58:59.498Z,24.90
2022-11-09T01:05:02.934Z,24.80
2022-11-09T01:11:08.023Z,24.90
2022-11-09T01:14:10.880Z,29.00
2022-11-09T01:17:12.530Z,31.60
2022-11-09T01:23:18.441Z,29.90
2022-11-09T01:26:21.348Z,30.40
2022-11-09T01:29:23.046Z,28.20
2022-11-09T01:35:26.398Z,23.90
2022-11-09T01:41:29.701Z,29.60
2022-11-09T01:44:32.255Z,26.90
2022-11-09T01:47:34.828Z,25.60
2022-11-09T01:50:44.663Z,25.60
2022-11-09T01:53:48.625Z,23.00
2022-11-09T01:56:54.235Z,23.80
2022-11-09T02:00:00.558Z,22.50
2022-11-09T02:03:06.522Z,24.10
2022-11-09T02:06:10.557Z,22.20
2022-11-09T02:09:31.832Z,23.60
2022-11-09T02:12:34.984Z,22.40
2022-11-09T02:15:41.408Z,21.60
2022-11-09T02:18:57.720Z,23.20
2022-11-09T02:21:59.398Z,32.40
2022-11-09T02:25:01.074Z,38.80
2022-11-09T02:28:02.990Z,42.90
2022-11-09T02:34:13.757Z,29.50
2022-11-09T02:37:45.654Z,24.60
2022-11-09T02:40:50.313Z,24.20
2022-11-09T02:43:52.756Z,30.30
2022-11-09T02:46:54.378Z,27.00
2022-11-09T02:49:58.004Z,23.30
2022-11-09T02:52:59.625Z,24.30
2022-11-09T02:56:02.331Z,23.50
2022-11-09T02:59:04.187Z,22.50
2022-11-09T03:05:07.949Z,21.50
2022-11-09T03:08:09.565Z,23.90
2022-11-09T03:11:11.233Z,24.60
2022-11-09T03:17:14.512Z,23.10
2022-11-09T03:20:16.262Z,22.40
2022-11-09T03:26:20.598Z,21.80
2022-11-09T03:29:22.316Z,25.90
2022-11-09T03:32:24.479Z,28.20
2022-11-09T03:35:26.334Z,26.30
2022-11-09T03:41:29.613Z,25.60
2022-11-09T03:47:33.133Z,24.10
2022-11-09T03:50:40.482Z,21.80
2022-11-09T03:53:42.195Z,19.60
2022-11-09T03:56:43.944Z,18.00
2022-11-09T04:02:47.533Z,21.10
2022-11-09T04:05:49.265Z,30.90
2022-11-09T04:08:51.811Z,21.60
2022-11-09T04:11:53.503Z,45.40
2022-11-09T04:14:55.138Z,22.70
2022-11-09T04:18:01.775Z,26.40
2022-11-09T04:21:03.527Z,32.60
2022-11-09T04:24:05.777Z,25.50
2022-11-09T04:27:07.471Z,22.50
2022-11-09T04:30:09.568Z,23.80
2022-11-09T04:33:11.244Z,24.00
2022-11-09T04:36:12.878Z,22.40
2022-11-09T04:39:14.604Z,25.20
2022-11-09T04:45:18.163Z,20.40
2022-11-09T04:51:21.474Z,20.90
2022-11-09T04:54:23.236Z,23.10
2022-11-09T05:00:27.365Z,22.70
2022-11-09T05:03:29.045Z,23.50
2022-11-09T05:09:35.322Z,23.00
2022-11-09T05:12:37.046Z,23.30
2022-11-09T05:15:39.417Z,23.50
2022-11-09T05:18:41.078Z,23.80
2022-11-09T05:21:42.814Z,25.50
2022-11-09T05:27:45.896Z,21.30
2022-11-09T05:33:51.269Z,21.10
2022-11-09T05:36:52.963Z,20.60
2022-11-09T05:39:54.538Z,25.80
2022-11-09T05:42:56.781Z,29.80
2022-11-09T05:46:02.442Z,30.90
2022-11-09T05:49:07.156Z,27.60
2022-11-09T05:52:08.800Z,33.00
2022-11-09T05:55:10.652Z,27.90
2022-11-09T06:01:16.986Z,21.60
2022-11-09T06:04:18.713Z,23.30
2022-11-09T06:10:22.279Z,23.10
2022-11-09T06:16:25.742Z,24.80
2022-11-09T06:22:29.193Z,26.80
2022-11-09T06:28:34.122Z,26.20
2022-11-09T06:31:35.913Z,26.30
2022-11-09T06:37:39.212Z,25.20
2022-11-09T06:40:40.845Z,24.20
2022-11-09T06:43:42.429Z,23.30
2022-11-09T06:46:44.117Z,23.00
2022-11-09T06:49:45.765Z,21.60
2022-11-09T06:52:47.430Z,21.90
2022-11-09T06:55:50.883Z,24.00
2022-11-09T06:58:52.850Z,22.80
2022-11-09T07:01:57.622Z,22.50
2022-11-09T07:05:03.137Z,23.70
2022-11-09T07:08:04.935Z,20.80
2022-11-09T07:11:16.285Z,21.10
2022-11-09T07:14:18.072Z,19.70
2022-11-09T07:20:21.569Z,20.10
2022-11-09T07:23:23.614Z,19.50
2022-11-09T07:26:25.529Z,18.80
2022-11-09T07:33:01.847Z,17.70
2022-11-09T07:35:50.613Z,19.10
2022-11-09T07:38:52.298Z,17.40
2022-11-09T07:41:55.522Z,14.50
2022-11-09T07:44:57.387Z,14.40
2022-11-09T07:48:01.352Z,13.60
2022-11-09T07:51:03.191Z,15.90
2022-11-09T07:54:04.825Z,15.30
2022-11-09T07:57:07.250Z,16.30
2022-11-09T08:00:10.360Z,16.10
2022-11-09T08:03:12.130Z,15.50
2022-11-09T08:06:18.238Z,15.70
2022-11-09T08:09:20.875Z,17.10
2022-11-09T08:12:22.538Z,17.90
2022-11-09T08:18:26.207Z,16.00
2022-11-09T08:24:30.036Z,16.60
2022-11-09T08:27:31.783Z,15.90
2022-11-09T08:30:35.338Z,15.10
2022-11-09T08:33:40.377Z,15.40
2022-11-09T08:36:42.313Z,15.30
2022-11-09T08:39:43.958Z,12.90
2022-11-09T08:42:46.027Z,12.80
2022-11-09T08:45:48.264Z,12.80
2022-11-09T08:48:49.890Z,13.60
2022-11-09T08:51:51.765Z,12.60
2022-11-09T08:54:53.380Z,12.40
2022-11-09T08:57:56.962Z,12.30
2022-11-09T09:00:58.839Z,12.10
2022-11-09T09:04:00.490Z,12.20
2022-11-09T09:07:02.284Z,12.30
2022-11-09T09:10:05.089Z,11.60
2022-11-09T09:13:06.785Z,11.70
2022-11-09T09:16:13.280Z,12.20
2022-11-09T09:19:14.956Z,12.60
2022-11-09T09:22:16.655Z,12.00
2022-11-09T09:25:18.410Z,13.00
2022-11-09T09:28:20.248Z,12.50
2022-11-09T09:31:22.221Z,12.90
2022-11-09T09:34:24.094Z,12.70
2022-11-09T09:37:25.976Z,13.00
2022-11-09T09:40:35.310Z,14.00
2022-11-09T09:43:46.664Z,14.50
2022-11-09T09:47:10.310Z,13.60
2022-11-09T09:50:16.126Z,13.60
2022-11-09T09:53:44.046Z,13.90
2022-11-09T09:56:47.459Z,13.90
2022-11-09T09:59:55.211Z,12.80
2022-11-09T10:02:56.874Z,12.80
2022-11-09T10:06:08.464Z,12.60
2022-11-09T10:09:39.457Z,12.40
2022-11-09T10:13:05.505Z,12.00
2022-11-09T10:16:26.203Z,11.80
2022-11-09T10:19:30.525Z,11.30
2022-11-09T10:22:59.702Z,11.30
2022-11-09T10:26:15.487Z,11.70
2022-11-09T10:29:43.463Z,11.00
2022-11-09T10:32:49.120Z,10.20
2022-11-09T10:36:24.006Z,10.80
2022-11-09T10:39:38.462Z,10.60
2022-11-09T10:42:45.247Z,12.10
2022-11-09T10:45:58.779Z,11.40
2022-11-09T10:49:19.530Z,11.60
2022-11-09T10:52:44.250Z,11.00
2022-11-09T10:56:08.982Z,11.50
2022-11-09T10:59:43.558Z,11.10
2022-11-09T11:02:46.711Z,11.40
2022-11-09T11:05:58.354Z,10.20
2022-11-09T11:09:05.911Z,10.50
2022-11-09T11:12:25.760Z,10.40
2022-11-09T11:15:39.734Z,10.80
2022-11-09T11:18:46.699Z,10.70
2022-11-09T11:22:09.260Z,10.30
2022-11-09T11:25:22.500Z,10.30
2022-11-09T11:28:42.864Z,9.70
2022-11-09T11:31:45.036Z,10.40
2022-11-09T11:35:00.288Z,11.80
2022-11-09T11:38:16.632Z,11.70
2022-11-09T11:41:54.162Z,10.50
2022-11-09T11:45:40.475Z,11.20
2022-11-09T11:48:43.380Z,10.80
2022-11-09T11:52:09.881Z,11.50
2022-11-09T11:55:29.883Z,10.40
2022-11-09T11:59:01.053Z,10.50
2022-11-09T12:02:21.220Z,9.90
2022-11-09T12:05:42.666Z,10.90
2022-11-09T12:09:02.741Z,10.00
2022-11-09T12:12:16.930Z,11.80
2022-11-09T12:15:38.140Z,11.20
2022-11-09T12:21:58.205Z,9.50
2022-11-09T12:25:19.846Z,9.90
2022-11-09T12:28:39.854Z,10.50
2022-11-09T12:32:03.233Z,10.30
2022-11-09T12:35:22.422Z,9.90
2022-11-09T12:38:29.334Z,10.00
2022-11-09T12:41:35.299Z,9.90
2022-11-09T12:45:09.598Z,9.90
2022-11-09T12:48:30.582Z,8.90
2022-11-09T12:51:33.941Z,8.00
2022-11-09T12:54:37.047Z,7.90
2022-11-09T12:57:38.760Z,8.30
2022-11-09T13:00:44.402Z,8.40
2022-11-09T13:03:55.278Z,8.70
2022-11-09T13:07:09.073Z,8.40
2022-11-09T13:10:36.661Z,8.60
2022-11-09T13:13:38.442Z,9.40
2022-11-09T13:16:40.056Z,10.40
2022-11-09T13:19:42.098Z,9.70
2022-11-09T13:22:43.752Z,9.50
2022-11-09T13:25:51.004Z,10.60
2022-11-09T13:29:18.992Z,10.40
2022-11-09T13:32:20.702Z,10.20
2022-11-09T13:35:52.193Z,11.20
2022-11-09T13:39:39.267Z,11.00
2022-11-09T13:42:41.054Z,10.50
2022-11-09T13:45:56.142Z,11.00
2022-11-09T13:48:57.852Z,11.30
2022-11-09T13:51:59.681Z,11.60
2022-11-09T13:55:01.368Z,11.50
2022-11-09T13:58:23.805Z,11.80
2022-11-09T14:01:34.251Z,12.10
2022-11-09T14:04:43.768Z,12.00
2022-11-09T14:07:45.545Z,12.30
2022-11-09T14:11:00.336Z,12.30
2022-11-09T14:14:05.021Z,13.20
2022-11-09T14:17:18.989Z,12.80
2022-11-09T14:20:37.162Z,12.60
2022-11-09T14:23:39.078Z,14.10
2022-11-09T14:26:40.681Z,13.30
2022-11-09T14:29:49.993Z,12.90
2022-11-09T14:32:56.784Z,13.50
2022-11-09T14:36:00.179Z,13.40
2022-11-09T14:39:05.050Z,14.40
2022-11-09T14:42:07.396Z,13.40
2022-11-09T14:45:15.132Z,14.20
2022-11-09T14:48:19.287Z,14.90
2022-11-09T14:51:21.857Z,17.10
2022-11-09T14:54:25.627Z,16.60
2022-11-09T14:57:27.389Z,17.30
2022-11-09T15:00:34.792Z,16.90
2022-11-09T15:03:36.546Z,16.90
2022-11-09T15:06:53.501Z,17.70
2022-11-09T15:10:09.003Z,17.70
2022-11-09T15:13:10.898Z,20.40
2022-11-09T15:16:24.424Z,18.70
2022-11-09T15:19:31.739Z,18.50
2022-11-09T15:22:48.865Z,20.80
2022-11-09T15:25:51.723Z,25.00
2022-11-09T15:28:53.476Z,21.10
2022-11-09T15:32:00.625Z,18.10
2022-11-09T15:35:02.300Z,20.00
2022-11-09T15:38:04.183Z,20.40
2022-11-09T15:41:14.821Z,22.10
2022-11-09T15:44:17.353Z,86.40
2022-11-09T15:47:27.814Z,75.50
2022-11-09T15:50:29.443Z,31.30
2022-11-09T15:53:32.892Z,21.90
2022-11-09T15:56:34.787Z,26.60
2022-11-09T15:59:36.415Z,19.50
2022-11-09T16:02:38.124Z,27.70
2022-11-09T16:05:39.841Z,25.60
2022-11-09T16:08:41.532Z,24.20
2022-11-09T16:11:43.168Z,23.90
2022-11-09T16:14:44.925Z,25.80
2022-11-09T16:17:49.682Z,28.00
2022-11-09T16:20:51.265Z,25.00
2022-11-09T16:23:58.285Z,25.80
2022-11-09T16:27:00.793Z,26.20
2022-11-09T16:30:03.195Z,23.80
2022-11-09T16:33:04.834Z,37.40
2022-11-09T16:36:10.524Z,33.80
2022-11-09T16:39:18.501Z,39.50
2022-11-09T16:42:20.420Z,25.90
2022-11-09T16:45:22.148Z,42.20
2022-11-09T16:48:24.263Z,31.60
2022-11-09T16:51:26.034Z,33.10
2022-11-09T16:57:29.283Z,33.70
2022-11-09T17:03:52.406Z,38.00
2022-11-09T17:09:55.720Z,58.00
2022-11-09T17:16:04.390Z,69.10
2022-11-09T17:19:06.378Z,56.60
2022-11-09T17:22:08.066Z,68.30
2022-11-09T17:25:10.111Z,56.70
2022-11-09T17:28:11.704Z,55.60
2022-11-09T17:34:16.282Z,50.40
2022-11-09T17:37:17.942Z,63.00
2022-11-09T17:40:21.486Z,71.70
2022-11-09T17:43:23.079Z,70.00
2022-11-09T17:46:24.949Z,57.50
2022-11-09T17:49:26.884Z,65.90
2022-11-09T17:52:28.796Z,61.10
2022-11-09T17:55:30.559Z,52.80
2022-11-09T17:58:32.264Z,57.60
2022-11-09T18:01:39.394Z,58.20
2022-11-09T18:04:42.364Z,56.00
2022-11-09T18:10:45.752Z,44.20
2022-11-09T18:13:47.389Z,41.30
2022-11-09T18:19:50.789Z,31.00
2022-11-09T18:22:53.781Z,26.40
2022-11-09T18:25:59.003Z,24.90
2022-11-09T18:29:00.667Z,33.20
2022-11-09T18:35:04.330Z,39.70
2022-11-09T18:38:10.029Z,52.70
2022-11-09T18:41:20.515Z,37.10
2022-11-09T18:44:22.142Z,34.50
2022-11-09T18:50:27.145Z,32.00
2022-11-09T18:53:34.524Z,34.00
2022-11-09T18:56:36.245Z,41.90
2022-11-09T18:59:40.880Z,39.20
2022-11-09T19:02:42.515Z,69.90
2022-11-09T19:09:05.513Z,28.60
2022-11-09T19:12:08.714Z,29.90
2022-11-09T19:15:10.536Z,26.40
2022-11-09T19:18:12.173Z,29.30
2022-11-09T19:24:48.428Z,37.70
2022-11-09T19:27:50.200Z,37.70
2022-11-09T19:33:53.546Z,47.30
2022-11-09T19:36:55.566Z,49.10
2022-11-09T19:42:58.972Z,45.90
2022-11-09T19:49:03.939Z,42.60
2022-11-09T19:52:05.583Z,43.20
2022-11-09T20:01:12.267Z,35.00
2022-11-09T20:04:14.016Z,54.60
2022-11-09T20:10:17.686Z,29.30
2022-11-09T20:13:20.108Z,31.50
2022-11-09T20:16:21.803Z,27.90
2022-11-09T20:22:26.496Z,48.40
2022-11-09T20:28:29.840Z,31.20
2022-11-09T20:31:31.521Z,36.60
2022-11-09T20:34:33.151Z,38.00
2022-11-09T20:40:36.432Z,33.10
2022-11-09T20:43:38.712Z,32.00
2022-11-09T20:46:40.418Z,38.50
2022-11-09T20:52:43.903Z,36.40
2022-11-09T20:55:45.489Z,36.40
2022-11-09T20:58:47.518Z,36.60
2022-11-09T21:01:49.222Z,33.10
2022-11-09T21:07:52.621Z,28.70
2022-11-09T21:13:56.462Z,32.20
2022-11-09T21:16:58.155Z,34.10
2022-11-09T21:23:13.629Z,32.60
2022-11-09T21:26:34.291Z,32.60
2022-11-09T21:29:50.985Z,42.10
2022-11-09T21:32:52.830Z,36.60
2022-11-09T21:35:55.009Z,36.00
2022-11-09T21:38:56.685Z,32.60
2022-11-09T21:41:59.137Z,34.80
2022-11-09T21:45:00.796Z,33.90
2022-11-09T21:48:02.503Z,35.80
2022-11-09T21:54:24.921Z,34.30
2022-11-09T21:57:26.704Z,35.30
2022-11-09T22:03:30.053Z,103.50
2022-11-09T22:06:31.803Z,43.40
2022-11-09T22:09:57.774Z,43.80
2022-11-09T22:16:17.399Z,39.20
2022-11-09T22:19:38.072Z,36.20
2022-11-09T22:22:39.704Z,44.40
2022-11-09T22:25:46.717Z,69.70
2022-11-09T22:28:49.745Z,56.20
2022-11-09T22:34:52.992Z,58.20
2022-11-09T22:37:54.712Z,65.90
2022-11-09T22:44:01.002Z,75.40
2022-11-09T22:47:02.661Z,79.40
2022-11-09T22:53:06.052Z,67.00
2022-11-09T22:56:09.869Z,58.00
2022-11-09T22:59:11.560Z,55.40
2022-11-09T23:05:15.078Z,49.80
2022-11-09T23:08:16.852Z,51.00
2022-11-09T23:14:43.697Z,43.70
2022-11-09T23:18:04.247Z,42.60
2022-11-09T23:21:06.060Z,43.60
2022-11-09T23:27:29.828Z,39.90
2022-11-09T23:30:31.769Z,41.40
2022-11-09T23:33:33.750Z,42.50
2022-11-09T23:36:35.370Z,46.90
2022-11-09T23:39:37.410Z,49.90
2022-11-09T23:42:39.120Z,49.20
2022-11-09T23:48:42.456Z,58.80
2022-11-09T23:51:44.182Z,65.30
2022-11-09T23:54:46.364Z,62.30
2022-11-09T23:57:47.951Z,54.30
